Startpagina
METAR-TAF:

METAR-TAF

Vliegvelden :

Luchthaven Oslo Gardermoen

Oslo, Noorwegen

breedte: 60-12N, lengte: 011-05E, hoogte: 208 m

Actueel weer

Dit bericht is 18 minuten geleden gemaakt, om 23:20 UTC
Wind 2 kt uit variabele richting
Temperatuur 14°C
Vochtigheid 55%
Druk 1028 hPa
Zicht 10 km of meer
geen wolken onder 1500 m en geen cumulonimbus

METAR: ENGM 262320Z VRB02KT CAVOK 14/05 Q1028

Tijdstip: 01:38 (23:38 UTC)

Verwachting

Verwachting geldig van 26 om 18 UTC tot 27 om 18 UTC
Wind 5 kt uit het noordoosten
Zicht 10 km of meer
geen wolken onder 1500 m en geen cumulonimbus
Tijdelijke
van 27 om 12 UTC tot 27 om 18 UTC
Wind 10 kt uit het oostzuidoosten

TAF: ENGM 2618/2718 05005KT CAVOK TEMPO 2712/2718 11010KT

Waarnemingen en weersverwachtingen van meer dan 4000 vliegvelden (METAR en TAF).

De beschikbare stations zijn de gele en rode punten op de kaart.

Ga met uw muis naar het station om de naam te zien.

Klik dan om waarnemingen en weersverwachtingen te zien.

kaart wijzigen: klik op de groene knoppen met een zwart kruis om in te zoomen, op de groene knop met een streepje om uit te zoomen of op de groene pijlen voor aangrenzende kaarten.


METAR-TAF: